sensor_id;sensor_type;location;lat;lon;timestamp;pressure;altitude;pressure_sealevel;temperature;humidity
10806;BME280;5455;53.224;6.000;2023-04-08T00:01:26;102420.47;;;4.47;100.00
10806;BME280;5455;53.224;6.000;2023-04-08T00:03:53;102403.56;;;4.44;100.00
10806;BME280;5455;53.224;6.000;2023-04-08T00:06:20;102417.22;;;4.44;100.00
10806;BME280;5455;53.224;6.000;2023-04-08T00:08:47;102414.50;;;4.39;100.00
10806;BME280;5455;53.224;6.000;2023-04-08T00:11:14;102416.97;;;4.36;100.00
10806;BME280;5455;53.224;6.000;2023-04-08T00:13:42;102420.00;;;4.29;100.00
10806;BME280;5455;53.224;6.000;2023-04-08T00:16:08;102424.09;;;4.27;100.00
10806;BME280;5455;53.224;6.000;2023-04-08T00:18:35;102415.66;;;4.23;100.00
10806;BME280;5455;53.224;6.000;2023-04-08T00:21:04;102421.13;;;4.23;100.00
10806;BME280;5455;53.224;6.000;2023-04-08T00:23:31;102422.19;;;4.22;100.00
10806;BME280;5455;53.224;6.000;2023-04-08T00:25:58;102421.94;;;4.19;100.00
10806;BME280;5455;53.224;6.000;2023-04-08T00:28:25;102425.22;;;4.16;100.00
10806;BME280;5455;53.224;6.000;2023-04-08T00:30:53;102418.41;;;4.13;100.00
10806;BME280;5455;53.224;6.000;2023-04-08T00:33:20;102428.78;;;4.11;100.00
10806;BME280;5455;53.224;6.000;2023-04-08T00:35:48;102428.22;;;4.09;100.00
10806;BME280;5455;53.224;6.000;2023-04-08T00:38:15;102428.78;;;4.06;100.00
10806;BME280;5455;53.224;6.000;2023-04-08T00:40:42;102436.44;;;4.04;100.00
10806;BME280;5455;53.224;6.000;2023-04-08T00:43:09;102435.91;;;4.02;100.00
10806;BME280;5455;53.224;6.000;2023-04-08T00:45:36;102433.72;;;3.99;100.00
10806;BME280;5455;53.224;6.000;2023-04-08T00:48:03;102426.09;;;3.96;100.00
10806;BME280;5455;53.224;6.000;2023-04-08T00:50:30;102430.16;;;3.94;100.00
10806;BME280;5455;53.224;6.000;2023-04-08T00:52:58;102435.91;;;3.92;100.00
10806;BME280;5455;53.224;6.000;2023-04-08T00:55:24;102439.72;;;3.91;100.00
10806;BME280;5455;53.224;6.000;2023-04-08T00:57:52;102439.19;;;3.89;100.00
10806;BME280;5455;53.224;6.000;2023-04-08T01:00:19;102445.19;;;3.86;100.00
10806;BME280;5455;53.224;6.000;2023-04-08T01:03:02;102441.38;;;3.82;100.00
10806;BME280;5455;53.224;6.000;2023-04-08T01:08:25;102431.31;;;3.77;100.00
10806;BME280;5455;53.224;6.000;2023-04-08T01:10:57;102442.22;;;3.77;100.00
10806;BME280;5455;53.224;6.000;2023-04-08T01:13:29;102443.28;;;3.76;100.00
10806;BME280;5455;53.224;6.000;2023-04-08T01:15:57;102438.13;;;3.75;100.00
10806;BME280;5455;53.224;6.000;2023-04-08T01:18:28;102440.88;;;3.75;100.00
10806;BME280;5455;53.224;6.000;2023-04-08T01:20:58;102434.84;;;3.73;100.00
10806;BME280;5455;53.224;6.000;2023-04-08T01:26:39;102437.31;;;3.69;100.00
10806;BME280;5455;53.224;6.000;2023-04-08T01:29:07;102444.66;;;3.64;100.00
10806;BME280;5455;53.224;6.000;2023-04-08T01:31:38;102439.50;;;3.62;100.00
10806;BME280;5455;53.224;6.000;2023-04-08T01:34:07;102433.22;;;3.62;100.00
10806;BME280;5455;53.224;6.000;2023-04-08T01:36:36;102436.22;;;3.60;100.00
10806;BME280;5455;53.224;6.000;2023-04-08T01:39:05;102443.31;;;3.56;100.00
10806;BME280;5455;53.224;6.000;2023-04-08T01:41:34;102448.47;;;3.58;100.00
10806;BME280;5455;53.224;6.000;2023-04-08T01:44:03;102448.78;;;3.56;100.00
10806;BME280;5455;53.224;6.000;2023-04-08T01:46:31;102444.69;;;3.54;100.00
10806;BME280;5455;53.224;6.000;2023-04-08T01:48:59;102439.50;;;3.52;100.00
10806;BME280;5455;53.224;6.000;2023-04-08T01:51:27;102450.41;;;3.52;100.00
10806;BME280;5455;53.224;6.000;2023-04-08T01:53:55;102449.03;;;3.50;100.00
10806;BME280;5455;53.224;6.000;2023-04-08T01:56:22;102449.56;;;3.47;100.00
10806;BME280;5455;53.224;6.000;2023-04-08T01:58:57;102443.59;;;3.45;100.00
10806;BME280;5455;53.224;6.000;2023-04-08T02:01:28;102440.88;;;3.45;100.00
10806;BME280;5455;53.224;6.000;2023-04-08T02:03:58;102444.66;;;3.44;100.00
10806;BME280;5455;53.224;6.000;2023-04-08T02:06:27;102443.56;;;3.40;100.00
10806;BME280;5455;53.224;6.000;2023-04-08T02:08:55;102441.94;;;3.39;100.00
10806;BME280;5455;53.224;6.000;2023-04-08T02:11:22;102441.94;;;3.39;100.00
10806;BME280;5455;53.224;6.000;2023-04-08T02:13:50;102446.84;;;3.37;100.00
10806;BME280;5455;53.224;6.000;2023-04-08T02:16:37;102447.66;;;3.37;100.00
10806;BME280;5455;53.224;6.000;2023-04-08T02:19:11;102444.09;;;3.37;100.00
10806;BME280;5455;53.224;6.000;2023-04-08T02:21:51;102443.84;;;3.33;100.00
10806;BME280;5455;53.224;6.000;2023-04-08T02:24:21;102445.19;;;3.30;100.00
10806;BME280;5455;53.224;6.000;2023-04-08T02:26:49;102438.94;;;3.30;100.00
10806;BME280;5455;53.224;6.000;2023-04-08T02:29:17;102453.38;;;3.30;100.00
10806;BME280;5455;53.224;6.000;2023-04-08T02:31:45;102441.38;;;3.31;100.00
10806;BME280;5455;53.224;6.000;2023-04-08T02:34:14;102442.22;;;3.32;100.00
10806;BME280;5455;53.224;6.000;2023-04-08T02:36:41;102448.50;;;3.32;100.00
10806;BME280;5455;53.224;6.000;2023-04-08T02:39:12;102445.47;;;3.29;100.00
10806;BME280;5455;53.224;6.000;2023-04-08T02:41:39;102445.75;;;3.32;100.00
10806;BME280;5455;53.224;6.000;2023-04-08T02:44:06;102451.22;;;3.32;100.00
10806;BME280;5455;53.224;6.000;2023-04-08T02:46:33;102448.22;;;3.29;100.00
10806;BME280;5455;53.224;6.000;2023-04-08T02:49:02;102461.53;;;3.30;100.00
10806;BME280;5455;53.224;6.000;2023-04-08T02:51:29;102460.47;;;3.31;100.00
10806;BME280;5455;53.224;6.000;2023-04-08T02:53:57;102463.19;;;3.31;100.00
10806;BME280;5455;53.224;6.000;2023-04-08T02:56:24;102474.09;;;3.31;100.00
10806;BME280;5455;53.224;6.000;2023-04-08T02:58:51;102471.09;;;3.28;100.00
10806;BME280;5455;53.224;6.000;2023-04-08T03:01:19;102468.66;;;3.26;100.00
10806;BME280;5455;53.224;6.000;2023-04-08T03:03:46;102470.56;;;3.26;100.00
10806;BME280;5455;53.224;6.000;2023-04-08T03:06:13;102468.38;;;3.28;100.00
10806;BME280;5455;53.224;6.000;2023-04-08T03:08:40;102479.28;;;3.28;100.00
10806;BME280;5455;53.224;6.000;2023-04-08T03:11:07;102477.38;;;3.23;100.00
10806;BME280;5455;53.224;6.000;2023-04-08T03:13:34;102479.81;;;3.25;100.00
10806;BME280;5455;53.224;6.000;2023-04-08T03:16:01;102481.72;;;3.24;100.00
10806;BME280;5455;53.224;6.000;2023-04-08T03:18:28;102484.72;;;3.23;100.00
10806;BME280;5455;53.224;6.000;2023-04-08T03:20:55;102483.06;;;3.22;100.00
10806;BME280;5455;53.224;6.000;2023-04-08T03:23:23;102483.91;;;3.22;100.00
10806;BME280;5455;53.224;6.000;2023-04-08T03:25:50;102490.47;;;3.21;100.00
10806;BME280;5455;53.224;6.000;2023-04-08T03:28:17;102492.31;;;3.16;100.00
10806;BME280;5455;53.224;6.000;2023-04-08T03:30:44;102498.59;;;3.16;100.00
10806;BME280;5455;53.224;6.000;2023-04-08T03:33:12;102492.31;;;3.16;100.00
10806;BME280;5455;53.224;6.000;2023-04-08T03:35:39;102489.88;;;3.14;100.00
10806;BME280;5455;53.224;6.000;2023-04-08T03:38:06;102492.88;;;3.13;100.00
10806;BME280;5455;53.224;6.000;2023-04-08T03:40:33;102491.50;;;3.10;100.00
10806;BME280;5455;53.224;6.000;2023-04-08T03:43:00;102499.13;;;3.08;100.00
10806;BME280;5455;53.224;6.000;2023-04-08T03:45:27;102498.06;;;3.09;100.00
10806;BME280;5455;53.224;6.000;2023-04-08T03:47:54;102503.22;;;3.11;100.00
10806;BME280;5455;53.224;6.000;2023-04-08T03:50:21;102498.31;;;3.13;100.00
10806;BME280;5455;53.224;6.000;2023-04-08T03:52:49;102497.53;;;3.12;100.00
10806;BME280;5455;53.224;6.000;2023-04-08T03:55:16;102500.78;;;3.09;100.00
10806;BME280;5455;53.224;6.000;2023-04-08T03:57:43;102497.22;;;3.09;100.00
10806;BME280;5455;53.224;6.000;2023-04-08T04:00:11;102490.66;;;3.10;100.00
10806;BME280;5455;53.224;6.000;2023-04-08T04:02:38;102500.50;;;3.11;100.00
10806;BME280;5455;53.224;6.000;2023-04-08T04:05:06;102505.41;;;3.09;100.00
10806;BME280;5455;53.224;6.000;2023-04-08T04:07:33;102504.28;;;3.05;100.00
10806;BME280;5455;53.224;6.000;2023-04-08T04:10:00;102498.31;;;3.03;100.00
10806;BME280;5455;53.224;6.000;2023-04-08T04:12:27;102500.44;;;3.01;100.00
10806;BME280;5455;53.224;6.000;2023-04-08T04:14:54;102495.81;;;2.96;100.00
10806;BME280;5455;53.224;6.000;2023-04-08T04:17:21;102508.91;;;2.94;100.00
10806;BME280;5455;53.224;6.000;2023-04-08T04:19:48;102494.47;;;2.94;100.00
10806;BME280;5455;53.224;6.000;2023-04-08T04:22:15;102494.75;;;2.97;100.00
10806;BME280;5455;53.224;6.000;2023-04-08T04:24:46;102513.53;;;2.99;100.00
10806;BME280;5455;53.224;6.000;2023-04-08T04:27:14;102514.34;;;2.99;100.00
10806;BME280;5455;53.224;6.000;2023-04-08T04:29:43;102517.09;;;2.99;100.00
10806;BME280;5455;53.224;6.000;2023-04-08T04:32:10;102516.53;;;2.97;100.00
10806;BME280;5455;53.224;6.000;2023-04-08T04:34:37;102528.22;;;2.98;100.00
10806;BME280;5455;53.224;6.000;2023-04-08T04:37:04;102529.34;;;2.97;100.00
10806;BME280;5455;53.224;6.000;2023-04-08T04:39:31;102529.59;;;2.95;100.00
10806;BME280;5455;53.224;6.000;2023-04-08T04:41:58;102537.50;;;2.97;100.00
10806;BME280;5455;53.224;6.000;2023-04-08T04:44:25;102538.28;;;2.92;100.00
10806;BME280;5455;53.224;6.000;2023-04-08T04:46:52;102532.31;;;2.95;100.00
10806;BME280;5455;53.224;6.000;2023-04-08T04:49:20;102534.22;;;2.95;100.00
10806;BME280;5455;53.224;6.000;2023-04-08T04:51:47;102538.03;;;2.94;100.00
10806;BME280;5455;53.224;6.000;2023-04-08T04:54:14;102547.59;;;2.96;100.00
10806;BME280;5455;53.224;6.000;2023-04-08T04:56:41;102538.34;;;2.97;100.00
10806;BME280;5455;53.224;6.000;2023-04-08T04:59:08;102542.97;;;2.97;100.00
10806;BME280;5455;53.224;6.000;2023-04-08T05:01:36;102546.22;;;2.99;100.00
10806;BME280;5455;53.224;6.000;2023-04-08T05:04:03;102561.75;;;2.98;100.00
10806;BME280;5455;53.224;6.000;2023-04-08T05:06:30;102553.31;;;3.00;100.00
10806;BME280;5455;53.224;6.000;2023-04-08T05:08:57;102561.50;;;3.00;100.00
10806;BME280;5455;53.224;6.000;2023-04-08T05:11:24;102559.84;;;2.99;100.00
10806;BME280;5455;53.224;6.000;2023-04-08T05:13:51;102558.25;;;3.03;100.00
10806;BME280;5455;53.224;6.000;2023-04-08T05:16:18;102558.25;;;3.03;100.00
10806;BME280;5455;53.224;6.000;2023-04-08T05:18:44;102562.34;;;3.05;100.00
10806;BME280;5455;53.224;6.000;2023-04-08T05:21:13;102571.34;;;3.06;100.00
10806;BME280;5455;53.224;6.000;2023-04-08T05:23:40;102572.16;;;3.06;100.00
10806;BME280;5455;53.224;6.000;2023-04-08T05:26:07;102566.44;;;3.08;100.00
10806;BME280;5455;53.224;6.000;2023-04-08T05:28:34;102568.38;;;3.12;100.00
10806;BME280;5455;53.224;6.000;2023-04-08T05:31:02;102572.19;;;3.16;100.00
10806;BME280;5455;53.224;6.000;2023-04-08T05:33:29;102571.94;;;3.18;100.00
10806;BME280;5455;53.224;6.000;2023-04-08T05:35:56;102579.81;;;3.19;100.00
10806;BME280;5455;53.224;6.000;2023-04-08T05:38:23;102576.56;;;3.22;100.00
10806;BME280;5455;53.224;6.000;2023-04-08T05:40:50;102574.13;;;3.26;100.00
10806;BME280;5455;53.224;6.000;2023-04-08T05:43:17;102573.88;;;3.32;100.00
10806;BME280;5455;53.224;6.000;2023-04-08T05:45:44;102573.88;;;3.43;100.00
10806;BME280;5455;53.224;6.000;2023-04-08T05:48:11;102574.75;;;3.48;100.00
10806;BME280;5455;53.224;6.000;2023-04-08T05:50:38;102582.41;;;3.56;100.00
10806;BME280;5455;53.224;6.000;2023-04-08T05:53:05;102586.47;;;3.64;100.00
10806;BME280;5455;53.224;6.000;2023-04-08T05:55:32;102581.59;;;3.71;100.00
10806;BME280;5455;53.224;6.000;2023-04-08T05:57:59;102586.50;;;3.79;100.00
10806;BME280;5455;53.224;6.000;2023-04-08T06:00:26;102587.38;;;3.84;100.00
10806;BME280;5455;53.224;6.000;2023-04-08T06:02:53;102581.63;;;3.91;100.00
10806;BME280;5455;53.224;6.000;2023-04-08T06:05:21;102586.28;;;3.96;100.00
10806;BME280;5455;53.224;6.000;2023-04-08T06:07:48;102593.91;;;4.04;100.00
10806;BME280;5455;53.224;6.000;2023-04-08T06:10:15;102595.56;;;4.10;100.00
10806;BME280;5455;53.224;6.000;2023-04-08T06:12:42;102594.22;;;4.17;100.00
10806;BME280;5455;53.224;6.000;2023-04-08T06:15:09;102592.81;;;4.25;100.00
10806;BME280;5455;53.224;6.000;2023-04-08T06:17:36;102588.16;;;4.30;100.00
10806;BME280;5455;53.224;6.000;2023-04-08T06:20:05;102600.72;;;4.36;100.00
10806;BME280;5455;53.224;6.000;2023-04-08T06:22:32;102596.63;;;4.44;100.00
10806;BME280;5455;53.224;6.000;2023-04-08T06:24:59;102603.44;;;4.52;100.00
10806;BME280;5455;53.224;6.000;2023-04-08T06:27:26;102602.88;;;4.60;100.00
10806;BME280;5455;53.224;6.000;2023-04-08T06:29:53;102605.63;;;4.65;100.00
10806;BME280;5455;53.224;6.000;2023-04-08T06:32:21;102613.53;;;4.71;100.00
10806;BME280;5455;53.224;6.000;2023-04-08T06:34:48;102611.03;;;4.75;100.00
10806;BME280;5455;53.224;6.000;2023-04-08T06:37:15;102616.25;;;4.76;100.00
10806;BME280;5455;53.224;6.000;2023-04-08T06:39:42;102617.91;;;4.77;100.00
10806;BME280;5455;53.224;6.000;2023-04-08T06:42:10;102628.00;;;4.77;100.00
10806;BME280;5455;53.224;6.000;2023-04-08T06:44:50;102626.88;;;4.78;100.00
10806;BME280;5455;53.224;6.000;2023-04-08T06:47:17;102634.53;;;4.81;100.00
10806;BME280;5455;53.224;6.000;2023-04-08T06:49:44;102627.97;;;4.92;100.00
10806;BME280;5455;53.224;6.000;2023-04-08T06:52:12;102635.31;;;5.07;100.00
10806;BME280;5455;53.224;6.000;2023-04-08T06:54:40;102641.56;;;5.22;100.00
10806;BME280;5455;53.224;6.000;2023-04-08T06:57:07;102644.75;;;5.39;100.00
10806;BME280;5455;53.224;6.000;2023-04-08T06:59:34;102650.69;;;5.62;100.00
10806;BME280;5455;53.224;6.000;2023-04-08T07:02:02;102651.09;;;5.84;100.00
10806;BME280;5455;53.224;6.000;2023-04-08T07:04:29;102657.84;;;6.01;100.00
10806;BME280;5455;53.224;6.000;2023-04-08T07:06:56;102659.66;;;6.21;100.00
10806;BME280;5455;53.224;6.000;2023-04-08T07:09:23;102670.50;;;6.36;100.00
10806;BME280;5455;53.224;6.000;2023-04-08T07:11:50;102665.97;;;6.50;100.00
10806;BME280;5455;53.224;6.000;2023-04-08T07:14:17;102666.81;;;6.51;100.00
10806;BME280;5455;53.224;6.000;2023-04-08T07:16:45;102677.31;;;6.68;100.00
10806;BME280;5455;53.224;6.000;2023-04-08T07:19:12;102672.28;;;6.80;100.00
10806;BME280;5455;53.224;6.000;2023-04-08T07:21:39;102680.66;;;6.93;100.00
10806;BME280;5455;53.224;6.000;2023-04-08T07:24:07;102684.44;;;6.97;100.00
10806;BME280;5455;53.224;6.000;2023-04-08T07:26:34;102689.94;;;6.97;100.00
10806;BME280;5455;53.224;6.000;2023-04-08T07:29:01;102687.41;;;7.06;100.00
10806;BME280;5455;53.224;6.000;2023-04-08T07:31:28;102691.50;;;7.03;100.00
10806;BME280;5455;53.224;6.000;2023-04-08T07:33:55;102689.41;;;6.95;100.00
10806;BME280;5455;53.224;6.000;2023-04-08T07:36:23;102690.47;;;6.99;100.00
10806;BME280;5455;53.224;6.000;2023-04-08T07:38:50;102690.91;;;7.11;100.00
10806;BME280;5455;53.224;6.000;2023-04-08T07:41:18;102683.13;;;7.42;100.00
10806;BME280;5455;53.224;6.000;2023-04-08T07:43:44;102691.31;;;7.47;100.00
10806;BME280;5455;53.224;6.000;2023-04-08T07:46:12;102693.91;;;7.57;100.00
10806;BME280;5455;53.224;6.000;2023-04-08T07:48:38;102689.91;;;7.50;100.00
10806;BME280;5455;53.224;6.000;2023-04-08T07:51:07;102694.69;;;7.39;100.00
10806;BME280;5455;53.224;6.000;2023-04-08T07:53:37;102696.44;;;7.30;100.00
10806;BME280;5455;53.224;6.000;2023-04-08T07:56:12;102693.41;;;7.08;100.00
10806;BME280;5455;53.224;6.000;2023-04-08T07:58:40;102693.75;;;7.01;100.00
10806;BME280;5455;53.224;6.000;2023-04-08T08:01:18;102693.97;;;7.05;100.00
10806;BME280;5455;53.224;6.000;2023-04-08T08:03:48;102701.75;;;7.21;100.00
10806;BME280;5455;53.224;6.000;2023-04-08T08:06:16;102690.66;;;7.32;100.00
10806;BME280;5455;53.224;6.000;2023-04-08T08:08:43;102696.25;;;7.45;100.00
10806;BME280;5455;53.224;6.000;2023-04-08T08:11:10;102699.13;;;7.59;100.00
10806;BME280;5455;53.224;6.000;2023-04-08T08:13:37;102696.28;;;7.88;100.00
10806;BME280;5455;53.224;6.000;2023-04-08T08:16:04;102704.06;;;7.99;100.00
10806;BME280;5455;53.224;6.000;2023-04-08T08:18:34;102712.03;;;8.19;100.00
10806;BME280;5455;53.224;6.000;2023-04-08T08:21:02;102722.63;;;8.31;100.00
10806;BME280;5455;53.224;6.000;2023-04-08T08:23:29;102720.78;;;8.21;100.00
10806;BME280;5455;53.224;6.000;2023-04-08T08:26:07;102723.94;;;8.34;100.00
10806;BME280;5455;53.224;6.000;2023-04-08T08:28:36;102719.38;;;8.61;100.00
10806;BME280;5455;53.224;6.000;2023-04-08T08:31:04;102727.69;;;8.56;100.00
10806;BME280;5455;53.224;6.000;2023-04-08T08:33:32;102731.28;;;8.57;100.00
10806;BME280;5455;53.224;6.000;2023-04-08T08:35:59;102727.28;;;8.49;100.00
10806;BME280;5455;53.224;6.000;2023-04-08T08:38:26;102723.69;;;8.67;100.00
10806;BME280;5455;53.224;6.000;2023-04-08T08:40:57;102723.13;;;8.52;100.00
10806;BME280;5455;53.224;6.000;2023-04-08T08:43:25;102719.22;;;8.15;100.00
10806;BME280;5455;53.224;6.000;2023-04-08T08:45:52;102720.84;;;7.98;100.00
10806;BME280;5455;53.224;6.000;2023-04-08T08:48:20;102718.03;;;8.03;100.00
10806;BME280;5455;53.224;6.000;2023-04-08T08:50:47;102725.03;;;8.14;100.00
10806;BME280;5455;53.224;6.000;2023-04-08T08:53:14;102723.03;;;8.19;100.00
10806;BME280;5455;53.224;6.000;2023-04-08T08:55:41;102729.03;;;8.21;100.00
10806;BME280;5455;53.224;6.000;2023-04-08T08:58:11;102730.38;;;8.24;100.00
10806;BME280;5455;53.224;6.000;2023-04-08T09:00:40;102726.78;;;8.28;100.00
10806;BME280;5455;53.224;6.000;2023-04-08T09:03:24;102730.38;;;8.24;100.00
10806;BME280;5455;53.224;6.000;2023-04-08T09:06:00;102734.72;;;8.30;100.00
10806;BME280;5455;53.224;6.000;2023-04-08T09:08:32;102728.69;;;8.47;100.00
10806;BME280;5455;53.224;6.000;2023-04-08T09:13:39;102732.44;;;8.69;100.00
10806;BME280;5455;53.224;6.000;2023-04-08T09:16:10;102730.88;;;8.82;100.00
10806;BME280;5455;53.224;6.000;2023-04-08T09:18:38;102746.28;;;8.64;100.00
10806;BME280;5455;53.224;6.000;2023-04-08T09:21:06;102738.94;;;8.41;100.00
10806;BME280;5455;53.224;6.000;2023-04-08T09:23:47;102743.91;;;8.58;100.00
10806;BME280;5455;53.224;6.000;2023-04-08T09:26:20;102733.66;;;8.63;100.00
10806;BME280;5455;53.224;6.000;2023-04-08T09:29:07;102748.19;;;8.82;100.00
10806;BME280;5455;53.224;6.000;2023-04-08T09:31:55;102742.75;;;8.77;100.00
10806;BME280;5455;53.224;6.000;2023-04-08T09:34:24;102758.84;;;8.70;100.00
10806;BME280;5455;53.224;6.000;2023-04-08T09:36:52;102752.53;;;8.51;100.00
10806;BME280;5455;53.224;6.000;2023-04-08T09:39:20;102751.66;;;8.37;100.00
10806;BME280;5455;53.224;6.000;2023-04-08T09:41:48;102751.06;;;8.40;100.00
10806;BME280;5455;53.224;6.000;2023-04-08T09:44:18;102749.59;;;8.29;100.00
10806;BME280;5455;53.224;6.000;2023-04-08T09:57:12;102750.41;;;8.80;100.00
10806;BME280;5455;53.224;6.000;2023-04-08T09:59:49;102752.03;;;8.81;100.00
10806;BME280;5455;53.224;6.000;2023-04-08T10:02:29;102754.59;;;8.59;100.00
10806;BME280;5455;53.224;6.000;2023-04-08T10:05:00;102750.00;;;8.73;100.00
10806;BME280;5455;53.224;6.000;2023-04-08T10:07:34;102750.84;;;8.88;100.00
10806;BME280;5455;53.224;6.000;2023-04-08T10:10:01;102750.06;;;8.68;100.00
10806;BME280;5455;53.224;6.000;2023-04-08T10:12:29;102746.06;;;8.61;100.00
10806;BME280;5455;53.224;6.000;2023-04-08T10:15:21;102731.34;;;8.70;100.00
10806;BME280;5455;53.224;6.000;2023-04-08T10:17:54;102730.25;;;8.85;100.00
10806;BME280;5455;53.224;6.000;2023-04-08T10:23:04;102733.78;;;8.72;100.00
10806;BME280;5455;53.224;6.000;2023-04-08T10:25:41;102738.84;;;8.97;100.00
10806;BME280;5455;53.224;6.000;2023-04-08T10:30:42;102739.09;;;9.14;100.00
10806;BME280;5455;53.224;6.000;2023-04-08T10:35:46;102739.56;;;9.49;100.00
10806;BME280;5455;53.224;6.000;2023-04-08T10:38:15;102732.31;;;9.66;100.00
10806;BME280;5455;53.224;6.000;2023-04-08T10:40:43;102727.69;;;9.89;100.00
10806;BME280;5455;53.224;6.000;2023-04-08T10:43:12;102731.78;;;9.78;100.00
10806;BME280;5455;53.224;6.000;2023-04-08T10:45:39;102732.91;;;9.63;100.00
10806;BME280;5455;53.224;6.000;2023-04-08T10:48:23;102735.34;;;9.65;100.00
10806;BME280;5455;53.224;6.000;2023-04-08T10:50:55;102733.63;;;9.69;100.00
10806;BME280;5455;53.224;6.000;2023-04-08T10:53:32;102738.69;;;9.89;100.00
10806;BME280;5455;53.224;6.000;2023-04-08T10:56:08;102745.03;;;9.89;100.00
10806;BME280;5455;53.224;6.000;2023-04-08T10:58:47;102742.81;;;9.64;100.00
10806;BME280;5455;53.224;6.000;2023-04-08T11:01:14;102736.41;;;9.55;100.00
10806;BME280;5455;53.224;6.000;2023-04-08T11:03:42;102737.09;;;9.47;100.00
10806;BME280;5455;53.224;6.000;2023-04-08T11:06:09;102736.22;;;9.19;100.00
10806;BME280;5455;53.224;6.000;2023-04-08T11:08:37;102745.25;;;9.25;100.00
10806;BME280;5455;53.224;6.000;2023-04-08T11:11:05;102735.56;;;9.55;100.00
10806;BME280;5455;53.224;6.000;2023-04-08T11:13:40;102732.06;;;9.76;100.00
10806;BME280;5455;53.224;6.000;2023-04-08T11:16:20;102732.97;;;9.99;100.00
10806;BME280;5455;53.224;6.000;2023-04-08T11:18:49;102727.31;;;9.82;100.00
10806;BME280;5455;53.224;6.000;2023-04-08T11:21:16;102721.66;;;9.73;100.00
10806;BME280;5455;53.224;6.000;2023-04-08T11:23:43;102732.38;;;10.02;100.00
10806;BME280;5455;53.224;6.000;2023-04-08T11:26:11;102724.59;;;10.04;100.00
10806;BME280;5455;53.224;6.000;2023-04-08T11:28:39;102724.06;;;10.29;100.00
10806;BME280;5455;53.224;6.000;2023-04-08T11:31:07;102723.91;;;10.48;100.00
10806;BME280;5455;53.224;6.000;2023-04-08T11:33:35;102723.56;;;10.49;100.00
10806;BME280;5455;53.224;6.000;2023-04-08T11:36:02;102721.63;;;10.50;100.00
10806;BME280;5455;53.224;6.000;2023-04-08T11:38:30;102722.47;;;10.50;100.00
10806;BME280;5455;53.224;6.000;2023-04-08T11:40:58;102725.09;;;10.56;100.00
10806;BME280;5455;53.224;6.000;2023-04-08T11:43:25;102716.34;;;10.40;100.00
10806;BME280;5455;53.224;6.000;2023-04-08T11:45:53;102720.25;;;10.39;100.00
10806;BME280;5455;53.224;6.000;2023-04-08T11:48:20;102717.63;;;10.56;100.00
10806;BME280;5455;53.224;6.000;2023-04-08T11:50:47;102715.69;;;10.57;100.00
10806;BME280;5455;53.224;6.000;2023-04-08T11:53:27;102718.88;;;10.72;100.00
10806;BME280;5455;53.224;6.000;2023-04-08T11:55:55;102726.78;;;10.65;100.00
10806;BME280;5455;53.224;6.000;2023-04-08T11:58:22;102728.53;;;10.61;100.00
10806;BME280;5455;53.224;6.000;2023-04-08T12:00:49;102735.94;;;10.74;100.00
10806;BME280;5455;53.224;6.000;2023-04-08T12:03:16;102730.66;;;10.42;100.00
10806;BME280;5455;53.224;6.000;2023-04-08T12:05:43;102735.09;;;10.29;100.00
10806;BME280;5455;53.224;6.000;2023-04-08T12:08:10;102738.19;;;10.14;100.00
10806;BME280;5455;53.224;6.000;2023-04-08T12:10:37;102732.06;;;10.17;100.00
10806;BME280;5455;53.224;6.000;2023-04-08T12:13:04;102740.69;;;10.38;100.00
10806;BME280;5455;53.224;6.000;2023-04-08T12:15:31;102747.72;;;10.44;100.00
10806;BME280;5455;53.224;6.000;2023-04-08T12:17:58;102749.44;;;10.40;100.00
10806;BME280;5455;53.224;6.000;2023-04-08T12:20:25;102748.38;;;10.27;100.00
10806;BME280;5455;53.224;6.000;2023-04-08T12:22:52;102746.88;;;9.94;100.00
10806;BME280;5455;53.224;6.000;2023-04-08T12:25:19;102756.34;;;10.02;100.00
10806;BME280;5455;53.224;6.000;2023-04-08T12:27:47;102753.19;;;10.08;100.00
10806;BME280;5455;53.224;6.000;2023-04-08T12:30:14;102752.97;;;10.05;100.00
10806;BME280;5455;53.224;6.000;2023-04-08T12:32:42;102752.88;;;9.96;100.00
10806;BME280;5455;53.224;6.000;2023-04-08T12:35:11;102749.31;;;9.95;100.00
10806;BME280;5455;53.224;6.000;2023-04-08T12:37:38;102747.97;;;10.20;100.00
10806;BME280;5455;53.224;6.000;2023-04-08T12:40:06;102743.63;;;10.41;100.00
10806;BME280;5455;53.224;6.000;2023-04-08T12:42:33;102749.09;;;10.55;100.00
10806;BME280;5455;53.224;6.000;2023-04-08T12:45:00;102748.47;;;10.58;100.00
10806;BME280;5455;53.224;6.000;2023-04-08T12:47:27;102744.88;;;10.58;100.00
10806;BME280;5455;53.224;6.000;2023-04-08T12:49:54;102742.72;;;10.68;100.00
10806;BME280;5455;53.224;6.000;2023-04-08T12:52:21;102749.72;;;10.74;100.00
10806;BME280;5455;53.224;6.000;2023-04-08T12:54:50;102747.03;;;10.61;100.00
10806;BME280;5455;53.224;6.000;2023-04-08T12:57:17;102758.38;;;10.59;100.00
10806;BME280;5455;53.224;6.000;2023-04-08T12:59:44;102753.22;;;10.44;100.00
10806;BME280;5455;53.224;6.000;2023-04-08T13:02:11;102750.31;;;10.27;100.00
10806;BME280;5455;53.224;6.000;2023-04-08T13:04:38;102748.28;;;10.19;100.00
10806;BME280;5455;53.224;6.000;2023-04-08T13:07:05;102749.38;;;10.31;100.00
10806;BME280;5455;53.224;6.000;2023-04-08T13:09:33;102748.47;;;10.22;100.00
10806;BME280;5455;53.224;6.000;2023-04-08T13:12:01;102746.03;;;10.21;100.00
10806;BME280;5455;53.224;6.000;2023-04-08T13:14:27;102751.75;;;10.24;100.00
10806;BME280;5455;53.224;6.000;2023-04-08T13:16:54;102751.75;;;10.24;100.00
10806;BME280;5455;53.224;6.000;2023-04-08T13:19:22;102750.09;;;10.10;100.00
10806;BME280;5455;53.224;6.000;2023-04-08T13:21:49;102752.75;;;10.28;100.00
10806;BME280;5455;53.224;6.000;2023-04-08T13:24:16;102743.16;;;10.26;100.00
10806;BME280;5455;53.224;6.000;2023-04-08T13:26:44;102750.59;;;10.39;100.00
10806;BME280;5455;53.224;6.000;2023-04-08T13:29:11;102745.91;;;10.26;100.00
10806;BME280;5455;53.224;6.000;2023-04-08T13:31:38;102753.59;;;10.02;100.00